Webcam Meteoipassi more information Webcam Meteoipassi


Pisa torre orologio more information Pisa torre orologio


avvertimento per Temporali more information blitzortung!


avvertimento per Pioggia more information rain snow radar


altri nostri siti meteo:

Pomeziameteo 1Sito sul meteo

Pomeziameteo DashboardSito sul meteo

Caput FrigorisSito sul meteo

BarcellonameteoSito sul meteo

MeteoipassiSito sul meteo

MeteotortoretoSito sul meteo

MeteospinacetoSito sul meteo

MeteoardeaSito sul meteo

MeteopalestrinaSito sul meteo

MeteocastelliSito sul meteo

MeteoGonzagaSito sul meteo

MeteoiserniaSito sul meteo

MeteolatinaSito sul meteo

RomaeurmeteoSito sul meteo

MeteomarconiaSito sul meteo



Temporali Inizio validita dal: 24-09-2017 05:00 Fino: 16:59 Allerta per: Temporali Livello: Giallo info button
english:
No Special Awareness Required BE AWARE, keep up to date with the latest weather forecast. Expect some minor disruption to outdoor activities

italiano:
Nessun Avviso STARE (RIMANERE) ATTENTI. Tenersi aggiornati con le previsioni del tempo più recenti. Aspettarsi alcuni disagi minori per le attività all'aria aperta. 

Pioggia Inizio validita dal: 24-09-2017 05:00 Fino: 16:59 Allerta per: Pioggia Livello: Giallo info button
english:
No Special Awareness Required BE AWARE, keep up to date with the latest weather forecast. Expect some minor disruption to outdoor activities

italiano:
Nessun Avviso STARE (RIMANERE) ATTENTI. Tenersi aggiornati con le previsioni del tempo più recenti. Aspettarsi alcuni disagi minori per le attività all'aria aperta. 

Report METAR

   
LIRQ - Firenze
Dati ricevuti: Sep 24 2017 9:50 am
Molto nuvoloso  
Molto nuvoloso  
   Vento: Variabile 1.9 km/h
Vento: Variabile 1.9 km/h
Temperatura: 18°C
P.to Rugiada: 14°C
Umidità: 78%
Barometro: 1019 hPa
Nuvole: Molto nuvoloso
Visibilità: oltre 10 km
dettagli cloud: Poche nuvole 762 m,
Molto nuvoloso 2133.6 m
LIRQ 240750Z VRB01KT 9999 FEW025 BKN070 18/14 Q1019
LIRP - Lucca
Dati ricevuti: Sep 24 2017 9:45 am
Molto nuvoloso  
Molto nuvoloso  
   Vento: SE 18.5 km/h
Vento: SE 18.5 km/h
Temperatura: 18°C
P.to Rugiada: 16°C
Umidità: 88%
Barometro: 1019 hPa
Nuvole: Molto nuvoloso
Visibilità: oltre 10 km
dettagli cloud: Poche nuvole 914.4 m,
Parzialmente nuvoloso 1828.8 m,
Molto nuvoloso 2438.4 m
LIRP 240745Z 12010KT 9999 FEW030 SCT060 BKN080 18/16 Q1019 NOSIG
LIRP - Livorno
Dati ricevuti: Sep 24 2017 9:45 am
Molto nuvoloso  
Molto nuvoloso  
   Vento: SE 18.5 km/h
Vento: SE 18.5 km/h
Temperatura: 18°C
P.to Rugiada: 16°C
Umidità: 88%
Barometro: 1019 hPa
Nuvole: Molto nuvoloso
Visibilità: oltre 10 km
dettagli cloud: Poche nuvole 914.4 m,
Parzialmente nuvoloso 1828.8 m,
Molto nuvoloso 2438.4 m
LIRP 240745Z 12010KT 9999 FEW030 SCT060 BKN080 18/16 Q1019 NOSIG
LIMP - Parma
Dati ricevuti: Sep 24 2017 9:50 am
Nebbia, Molto nuvoloso  
Nebbia, Molto nuvoloso  
   Vento: Nord 9.3 km/h
Vento: Nord 9.3 km/h
Temperatura: 17°C
P.to Rugiada: 14°C
Umidità: 83%
Barometro: 1019 hPa
Nuvole: Molto nuvoloso
Visibilità: 5 km
dettagli cloud: Molto nuvoloso 1828.8 m
LIMP 240750Z 36005KT 5000 BR BKN060 17/14 Q1019
LIRF - Roma
Dati ricevuti: Sep 24 2017 9:50 am
Sereno  
Sereno  
   Vento: Oriente 11.1 km/h
Vento: Oriente 11.1 km/h
Temperatura: 19°C
P.to Rugiada: 12°C
Umidità: 64%
Barometro: 1019 hPa
Visibilità: oltre 10 km
dettagli cloud: Sereno
LIRF 240750Z 09006KT 040V120 CAVOK 19/12 Q1019 NOSIG
 

Script sviluppato da  Saratoga-weather.org Adattato per il modello da  Weerstation Leuven

Potete trovare le nostre info meteo anche a:

European Weather Network

Weather Underground

AWEKAS

HAMweather, WeatherForYou, PWS Weather

Strumentazione usata:

Stazione meteo
Oregon Scientific WMR88

Programma gestore dati meteo
WVIEW

Server per i dati meteo
WDS-5

Provider
Anemos WDS-5

Oregon Scientific WMR88

WVIEW

WDS-5

Anemos WDS-5